Atlanta, GA (30310)

2:20 PM EST on January 30, 2015 (GMT -0500)
Grant Park | Change Station
CLOSE
Current Station
Personal Weather Station
Location: Atlanta, GA
Elevation: 1050 ft
Nearby Weather Stations

Elev 1050 ft 33.74 °N, 84.37 °W | Updated 36 seconds ago

Clear
Clear
47.1 °F
Feels Like 47 °F
N
2.7
Wind Variable Wind from North
Gusts 12.8 mph

Today
High -- | Low -- °F
--% Chance of Precip.
Yesterday
High -- | Low -- °F
Precip. -- in
7:35 AM 6:06 PM
Waxing Gibbous, 84% visible
Pressure 30.28 in
Visibility 10.0 miles
Clouds Few 25000 ft
Windchill 47 °F
Dew Point 27 °F
Humidity 45%
Rainfall 0.00 in
Snow Depth Not available.
UV 4 out of 12
Pollen 3.70 out of 12
Air Quality Not available.
Flu Activity Not available.
METAR KATL 301852Z 32016G20KT 10SM FEW250 09/M05 A3027 RMK AO2 SLP253 T00941050

More Conditions Fewer Conditions

Pressure 30.28 in
Visibility 10.0 miles
Clouds Few 25000 ft
Windchill 47 °F
Dew Point 27 °F
Humidity 45%
Rainfall 0.00 in
Snow Depth Not available.
UV 4 out of 12
Pollen 3.70 out of 12
Air Quality Not available.
Flu Activity Not available.
METAR KATL 301852Z 32016G20KT 10SM FEW250 09/M05 A3027 RMK AO2 SLP253 T00941050

More Conditions Fewer Conditions

10-Day Weather Forecast

Almanac

Astronomy

Jan. 30, 2015 Rise Set
Actual Time
Civil Twilight
Nautical Twilight
Astronomical Twilight
Moon
Length of Visible Light
Length of Day
Tomorrow will be .
, % of the Moon is Illuminated

Today's Extremes

State Highs State Lows

Community

WunderPhotos

Upload Photos

1,791,871 photos uploaded!

WunderBlogs® & News

Nearby

Air Quality

  Air Quality AQ Index Pollutant
Not available.

Snow Depth

Station Depth Elevation

Earthquake Activity

City Distance Mag. Time & Date
Minimum magnitude displayed is 2.5.

Coastal Water Temperatures

Place Temperature

Nearby Weather Stations